createdAt,value
2022-09-12T00:01:16.660Z,53.99
2022-09-12T00:03:45.323Z,54.15
2022-09-12T00:06:22.339Z,53.98
2022-09-12T00:08:51.422Z,54.27
2022-09-12T00:11:19.639Z,53.98
2022-09-12T00:13:47.748Z,54.32
2022-09-12T00:16:18.088Z,54.06
2022-09-12T00:18:47.275Z,54.20
2022-09-12T00:21:18.165Z,53.94
2022-09-12T00:23:46.567Z,53.89
2022-09-12T00:26:15.581Z,54.25
2022-09-12T00:28:43.905Z,54.00
2022-09-12T00:31:14.897Z,53.85
2022-09-12T00:33:44.057Z,54.34
2022-09-12T00:36:14.838Z,53.84
2022-09-12T00:38:44.767Z,54.19
2022-09-12T00:41:21.192Z,54.18
2022-09-12T00:43:51.180Z,54.14
2022-09-12T00:46:30.383Z,53.88
2022-09-12T00:49:01.995Z,53.73
2022-09-12T00:51:32.679Z,53.75
2022-09-12T00:54:06.891Z,54.16
2022-09-12T00:56:35.923Z,54.08
2022-09-12T00:59:08.524Z,54.19
2022-09-12T01:01:37.491Z,53.83
2022-09-12T01:04:05.787Z,53.82
2022-09-12T01:06:38.358Z,53.85
2022-09-12T01:09:08.682Z,53.77
2022-09-12T01:11:40.278Z,53.83
2022-09-12T01:14:09.064Z,53.73
2022-09-12T01:16:38.041Z,53.75
2022-09-12T01:19:21.534Z,53.76
2022-09-12T01:22:06.748Z,53.96
2022-09-12T01:25:00.462Z,53.87
2022-09-12T01:27:52.008Z,53.87
2022-09-12T01:30:31.059Z,53.93
2022-09-12T01:33:30.122Z,53.52
2022-09-12T01:36:17.211Z,53.79
2022-09-12T01:38:50.435Z,53.60
2022-09-12T01:41:25.925Z,53.56
2022-09-12T01:44:01.817Z,53.41
2022-09-12T01:46:36.505Z,53.43
2022-09-12T01:49:11.356Z,53.80
2022-09-12T01:51:43.664Z,53.40
2022-09-12T01:54:16.954Z,53.46
2022-09-12T01:56:47.522Z,53.60
2022-09-12T01:59:21.592Z,53.76
2022-09-12T02:01:57.229Z,53.37
2022-09-12T02:04:33.983Z,53.41
2022-09-12T02:07:09.475Z,53.75
2022-09-12T02:09:42.994Z,53.44
2022-09-12T02:12:15.240Z,53.63
2022-09-12T02:14:49.781Z,53.46
2022-09-12T02:17:22.428Z,53.73
2022-09-12T02:19:56.878Z,53.50
2022-09-12T02:22:28.276Z,53.68
2022-09-12T02:25:00.951Z,53.33
2022-09-12T02:27:34.092Z,53.59
2022-09-12T02:30:02.470Z,53.61
2022-09-12T02:32:38.276Z,53.66
2022-09-12T02:35:12.610Z,53.36
2022-09-12T02:37:59.539Z,53.62
2022-09-12T02:40:27.922Z,53.63
2022-09-12T02:42:56.137Z,53.73
2022-09-12T02:45:24.678Z,53.33
2022-09-12T02:47:59.726Z,53.74
2022-09-12T02:50:28.858Z,53.70
2022-09-12T02:52:59.944Z,53.66
2022-09-12T02:55:30.488Z,53.69
2022-09-12T02:57:58.689Z,53.53
2022-09-12T03:00:28.400Z,53.68
2022-09-12T03:03:28.211Z,53.54
2022-09-12T03:06:00.317Z,53.28
2022-09-12T03:08:51.590Z,53.53
2022-09-12T03:11:57.940Z,53.07
2022-09-12T03:14:40.495Z,53.59
2022-09-12T03:17:19.104Z,53.57
2022-09-12T03:19:58.007Z,53.48
2022-09-12T03:22:35.077Z,53.25
2022-09-12T03:25:11.381Z,53.20
2022-09-12T03:27:44.958Z,53.17
2022-09-12T03:30:13.796Z,53.55
2022-09-12T03:32:43.372Z,53.66
2022-09-12T03:35:14.869Z,53.28
2022-09-12T03:37:43.033Z,53.43
2022-09-12T03:40:12.985Z,53.69
2022-09-12T03:42:41.258Z,53.60
2022-09-12T03:45:11.393Z,53.67
2022-09-12T03:47:39.581Z,53.65
2022-09-12T03:50:08.887Z,53.63
2022-09-12T03:52:38.421Z,53.48
2022-09-12T03:55:07.718Z,53.46
2022-09-12T03:57:35.878Z,53.54
2022-09-12T04:00:05.314Z,53.79
2022-09-12T04:02:33.439Z,53.73
2022-09-12T04:05:01.594Z,53.83
2022-09-12T04:07:30.269Z,53.50
2022-09-12T04:09:59.740Z,53.64
2022-09-12T04:12:27.877Z,53.69
2022-09-12T04:14:55.947Z,53.72
2022-09-12T04:17:24.043Z,53.81
2022-09-12T04:19:52.168Z,53.29
2022-09-12T04:22:21.143Z,53.32
2022-09-12T04:24:49.435Z,53.53
2022-09-12T04:27:19.247Z,53.82
2022-09-12T04:29:47.299Z,53.58
2022-09-12T04:32:15.435Z,53.67
2022-09-12T04:34:43.595Z,53.61
2022-09-12T04:37:11.940Z,53.81
2022-09-12T04:39:40.880Z,53.67
2022-09-12T04:42:09.095Z,53.81
2022-09-12T04:44:38.753Z,53.41
2022-09-12T04:47:07.029Z,53.86
2022-09-12T04:49:35.259Z,53.67
2022-09-12T04:52:03.847Z,53.47
2022-09-12T04:54:31.968Z,53.75
2022-09-12T04:57:00.156Z,53.84
2022-09-12T04:59:28.302Z,53.70
2022-09-12T05:01:57.827Z,53.69
2022-09-12T05:04:25.981Z,53.73
2022-09-12T05:06:54.118Z,53.88
2022-09-12T05:09:22.165Z,53.40
2022-09-12T05:12:05.946Z,53.45
2022-09-12T05:14:35.101Z,53.71
2022-09-12T05:17:06.151Z,53.44
2022-09-12T05:19:34.291Z,53.49
2022-09-12T05:22:02.609Z,53.83
2022-09-12T05:24:30.688Z,53.91
2022-09-12T05:26:58.847Z,53.67
2022-09-12T05:29:27.135Z,53.70
2022-09-12T05:31:55.239Z,53.77
2022-09-12T05:34:24.916Z,53.65
2022-09-12T05:36:52.975Z,53.78
2022-09-12T05:39:21.215Z,53.67
2022-09-12T05:41:49.403Z,53.83
2022-09-12T05:44:17.961Z,53.82
2022-09-12T05:46:48.670Z,53.82
2022-09-12T05:49:16.881Z,53.42
2022-09-12T05:51:47.003Z,53.55
2022-09-12T05:54:19.546Z,53.74
2022-09-12T05:56:48.155Z,53.54
2022-09-12T05:59:19.315Z,53.85
2022-09-12T06:01:48.669Z,53.46
2022-09-12T06:04:17.960Z,53.65
2022-09-12T06:06:48.813Z,53.70
2022-09-12T06:09:18.231Z,53.89
2022-09-12T06:11:47.681Z,53.49
2022-09-12T06:14:17.683Z,53.66
2022-09-12T06:16:46.321Z,53.69
2022-09-12T06:19:17.162Z,53.77
2022-09-12T06:21:45.670Z,53.68
2022-09-12T06:24:15.196Z,53.80
2022-09-12T06:26:43.827Z,53.69
2022-09-12T06:29:13.477Z,53.76
2022-09-12T06:31:43.103Z,53.78
2022-09-12T06:34:14.178Z,53.72
2022-09-12T06:36:43.938Z,53.85
2022-09-12T06:39:14.915Z,53.70
2022-09-12T06:41:44.301Z,53.68
2022-09-12T06:44:14.401Z,53.87
2022-09-12T06:46:42.846Z,53.41
2022-09-12T06:49:11.518Z,53.67
2022-09-12T06:51:41.876Z,53.43
2022-09-12T06:54:13.388Z,53.68
2022-09-12T06:56:43.020Z,53.80
2022-09-12T06:59:11.305Z,53.56
2022-09-12T07:01:40.265Z,53.83
2022-09-12T07:04:08.583Z,53.69
2022-09-12T07:06:39.885Z,53.71
2022-09-12T07:09:10.037Z,53.95
2022-09-12T07:11:40.086Z,53.51
2022-09-12T07:14:13.016Z,53.40
2022-09-12T07:16:41.135Z,53.50
2022-09-12T07:19:09.908Z,53.78
2022-09-12T07:21:40.440Z,53.80
2022-09-12T07:24:10.447Z,53.71
2022-09-12T07:26:40.201Z,53.79
2022-09-12T07:29:36.087Z,53.55
2022-09-12T07:32:06.022Z,53.56
2022-09-12T07:34:34.468Z,53.56
2022-09-12T07:37:02.609Z,54.00
2022-09-12T07:39:30.827Z,53.68
2022-09-12T07:42:00.449Z,53.80
2022-09-12T07:44:31.310Z,53.96
2022-09-12T07:46:59.591Z,53.59
2022-09-12T07:49:27.708Z,53.96
2022-09-12T07:51:55.812Z,53.99
2022-09-12T07:54:24.401Z,53.71
2022-09-12T07:56:52.490Z,54.03
2022-09-12T07:59:41.437Z,53.68
2022-09-12T08:02:16.833Z,53.90
2022-09-12T08:04:46.013Z,53.84
2022-09-12T08:07:14.086Z,53.89
2022-09-12T08:09:42.125Z,53.94
2022-09-12T08:12:10.297Z,53.73
2022-09-12T08:14:38.422Z,53.77
2022-09-12T08:17:06.794Z,53.68
2022-09-12T08:19:36.315Z,54.14
2022-09-12T08:22:04.527Z,53.74
2022-09-12T08:24:33.702Z,53.82
2022-09-12T08:27:01.776Z,53.80
2022-09-12T08:29:29.873Z,53.85
2022-09-12T08:31:58.016Z,53.79
2022-09-12T08:34:26.252Z,54.15
2022-09-12T08:36:55.726Z,54.20
2022-09-12T08:39:24.764Z,53.87
2022-09-12T08:42:03.123Z,53.90
2022-09-12T08:44:54.140Z,53.95
2022-09-12T08:47:27.957Z,54.25
2022-09-12T08:50:05.256Z,54.19
2022-09-12T08:52:41.082Z,53.86
2022-09-12T08:55:25.133Z,53.90
2022-09-12T08:57:53.707Z,53.84
2022-09-12T09:00:22.676Z,53.95
2022-09-12T09:03:14.970Z,54.31
2022-09-12T09:05:49.627Z,54.39
2022-09-12T09:08:40.656Z,54.03
2022-09-12T09:11:21.830Z,54.13
2022-09-12T09:14:19.146Z,54.41
2022-09-12T09:16:50.018Z,53.89
2022-09-12T09:19:22.971Z,54.43
2022-09-12T09:21:54.376Z,54.38
2022-09-12T09:24:29.880Z,54.34
2022-09-12T09:27:02.973Z,54.13
2022-09-12T09:29:37.790Z,54.33
2022-09-12T09:32:14.839Z,54.45
2022-09-12T09:34:43.183Z,54.26
2022-09-12T09:37:19.898Z,54.18
2022-09-12T09:40:02.475Z,54.15
2022-09-12T09:42:41.768Z,54.29
2022-09-12T09:45:16.945Z,54.21
2022-09-12T09:47:47.161Z,54.09
2022-09-12T09:50:17.778Z,54.32
2022-09-12T09:52:46.673Z,54.23
2022-09-12T09:55:21.977Z,54.32
2022-09-12T09:57:52.379Z,54.17
2022-09-12T10:00:30.708Z,54.46
2022-09-12T10:03:31.851Z,54.66
2022-09-12T10:06:03.004Z,54.25
2022-09-12T10:08:33.444Z,54.36
2022-09-12T10:11:06.106Z,54.51
2022-09-12T10:13:41.160Z,54.42
2022-09-12T10:16:20.651Z,54.35
2022-09-12T10:18:49.405Z,54.44
2022-09-12T10:21:22.121Z,54.49
2022-09-12T10:23:54.444Z,54.29
2022-09-12T10:26:24.057Z,54.44
2022-09-12T10:28:55.146Z,54.37
2022-09-12T10:31:29.773Z,54.32
2022-09-12T10:34:01.005Z,54.36
2022-09-12T10:36:38.578Z,54.85
2022-09-12T10:39:08.128Z,54.48
2022-09-12T10:41:40.587Z,54.70
2022-09-12T10:44:10.892Z,54.53
2022-09-12T10:46:40.101Z,54.75
2022-09-12T10:49:23.062Z,54.64
2022-09-12T10:51:51.714Z,54.19
2022-09-12T10:54:22.993Z,54.42
2022-09-12T10:57:22.085Z,54.50
2022-09-12T11:00:05.554Z,54.79
2022-09-12T11:02:46.765Z,54.66
2022-09-12T11:05:22.798Z,54.66
2022-09-12T11:07:57.583Z,54.85
2022-09-12T11:10:38.778Z,54.70
2022-09-12T11:13:24.129Z,54.84
2022-09-12T11:16:03.676Z,54.85
2022-09-12T11:18:43.889Z,54.44
2022-09-12T11:21:29.113Z,54.73
2022-09-12T11:24:17.120Z,54.63
2022-09-12T11:26:55.584Z,54.81
2022-09-12T11:29:40.542Z,54.48
2022-09-12T11:32:49.908Z,54.58
2022-09-12T11:35:24.598Z,54.77
2022-09-12T11:38:15.559Z,54.90
2022-09-12T11:40:49.963Z,54.53
2022-09-12T11:43:29.899Z,54.85
2022-09-12T11:46:03.868Z,54.50
2022-09-12T11:48:39.691Z,54.91
2022-09-12T11:51:17.208Z,54.69
2022-09-12T11:53:48.270Z,54.69
2022-09-12T11:56:19.197Z,54.63
2022-09-12T11:58:55.380Z,54.99
2022-09-12T12:01:35.358Z,54.91
2022-09-12T12:04:12.283Z,54.94
2022-09-12T12:06:50.077Z,55.05
2022-09-12T12:09:18.627Z,54.72
2022-09-12T12:11:56.215Z,55.22
2022-09-12T12:14:29.147Z,54.77
2022-09-12T12:16:58.932Z,55.07
2022-09-12T12:19:34.871Z,55.20
2022-09-12T12:22:16.636Z,54.76
2022-09-12T12:25:04.988Z,55.34
2022-09-12T12:27:54.839Z,55.19
2022-09-12T12:31:05.521Z,55.09
2022-09-12T12:34:07.073Z,55.29
2022-09-12T12:36:43.077Z,55.00
2022-09-12T12:39:48.314Z,55.03
2022-09-12T12:43:04.920Z,55.29
2022-09-12T12:46:08.202Z,55.31
2022-09-12T12:48:46.132Z,55.07
2022-09-12T12:51:45.006Z,55.22
2022-09-12T12:54:32.467Z,55.28
2022-09-12T12:57:18.778Z,55.52
2022-09-12T12:59:54.157Z,55.00
2022-09-12T13:02:26.659Z,55.01
2022-09-12T13:04:56.357Z,54.89
2022-09-12T13:07:32.616Z,55.17
2022-09-12T13:10:03.158Z,55.35
2022-09-12T13:12:35.184Z,55.10
2022-09-12T13:15:05.727Z,55.03
2022-09-12T13:17:39.148Z,55.07
2022-09-12T13:20:27.785Z,55.39
2022-09-12T13:22:59.034Z,55.43
2022-09-12T13:25:30.738Z,55.36
2022-09-12T13:28:18.517Z,55.47
2022-09-12T13:30:49.510Z,55.19
2022-09-12T13:33:25.992Z,55.45
2022-09-12T13:36:16.700Z,55.17
2022-09-12T13:38:58.440Z,55.47
2022-09-12T13:41:48.120Z,55.43
2022-09-12T13:44:19.704Z,55.32
2022-09-12T13:46:48.857Z,55.33
2022-09-12T13:49:23.989Z,55.35
2022-09-12T13:52:02.725Z,55.46
2022-09-12T13:54:33.539Z,55.35
2022-09-12T13:57:01.945Z,55.03
2022-09-12T13:59:29.980Z,55.08
2022-09-12T14:01:58.037Z,55.09
2022-09-12T14:04:44.965Z,55.41
2022-09-12T14:07:17.463Z,55.10
2022-09-12T14:09:53.823Z,55.43
2022-09-12T14:12:27.688Z,55.48
2022-09-12T14:14:55.900Z,55.57
2022-09-12T14:17:29.884Z,55.58
2022-09-12T14:19:59.691Z,55.37
2022-09-12T14:22:29.422Z,55.27
2022-09-12T14:25:00.166Z,55.47
2022-09-12T14:27:30.496Z,55.61
2022-09-12T14:30:03.915Z,55.28
2022-09-12T14:32:32.143Z,55.63
2022-09-12T14:35:20.189Z,55.68
2022-09-12T14:37:51.249Z,55.31
2022-09-12T14:40:23.684Z,55.61
2022-09-12T14:42:56.885Z,55.20
2022-09-12T14:45:31.612Z,55.69
2022-09-12T14:48:00.538Z,55.23
2022-09-12T14:50:33.529Z,55.66
2022-09-12T14:53:07.031Z,55.41
2022-09-12T14:55:44.734Z,55.71
2022-09-12T14:58:23.655Z,56.04
2022-09-12T15:01:01.861Z,56.21
2022-09-12T15:03:32.924Z,55.95
2022-09-12T15:06:02.970Z,55.58
2022-09-12T15:08:32.191Z,55.81
2022-09-12T15:11:01.870Z,55.53
2022-09-12T15:13:30.887Z,55.93
2022-09-12T15:16:00.550Z,55.83
2022-09-12T15:18:30.156Z,55.88
2022-09-12T15:21:02.479Z,55.98
2022-09-12T15:23:35.908Z,55.67
2022-09-12T15:26:05.923Z,56.11
2022-09-12T15:28:34.933Z,55.88
2022-09-12T15:31:08.320Z,55.85
2022-09-12T15:33:36.496Z,56.14
2022-09-12T15:36:05.258Z,55.78
2022-09-12T15:38:33.362Z,56.04
2022-09-12T15:41:01.514Z,55.76
2022-09-12T15:43:30.980Z,55.70
2022-09-12T15:45:59.412Z,56.06
2022-09-12T15:48:29.041Z,55.87
2022-09-12T15:51:01.465Z,55.48
2022-09-12T15:53:29.760Z,55.73
2022-09-12T15:55:57.944Z,56.11
2022-09-12T15:58:26.124Z,55.98
2022-09-12T16:00:55.614Z,55.85
2022-09-12T16:03:25.447Z,56.25
2022-09-12T16:05:58.263Z,55.85
2022-09-12T16:08:26.902Z,56.13
2022-09-12T16:10:57.058Z,55.91
2022-09-12T16:13:25.459Z,55.71
2022-09-12T16:15:57.614Z,56.11
2022-09-12T16:18:26.194Z,55.91
2022-09-12T16:20:54.559Z,56.20
2022-09-12T16:23:23.360Z,56.00
2022-09-12T16:25:58.567Z,56.48
2022-09-12T16:28:26.766Z,56.00
2022-09-12T16:31:00.930Z,56.26
2022-09-12T16:33:29.727Z,56.39
2022-09-12T16:36:04.077Z,56.12
2022-09-12T16:38:32.378Z,56.29
2022-09-12T16:41:04.230Z,56.24
2022-09-12T16:43:33.410Z,56.48
2022-09-12T16:46:04.225Z,56.06
2022-09-12T16:48:33.710Z,56.02
2022-09-12T16:51:03.505Z,56.24
2022-09-12T16:53:32.376Z,56.18
2022-09-12T16:56:00.474Z,56.03
2022-09-12T16:58:28.651Z,56.15
2022-09-12T17:01:06.227Z,56.43
2022-09-12T17:03:34.516Z,56.40
2022-09-12T17:06:04.922Z,56.18
2022-09-12T17:08:35.350Z,56.20
2022-09-12T17:11:04.808Z,56.41
2022-09-12T17:13:53.316Z,56.31
2022-09-12T17:16:23.844Z,56.42
2022-09-12T17:18:53.749Z,56.11
2022-09-12T17:21:22.769Z,56.34
2022-09-12T17:23:51.021Z,56.08
2022-09-12T17:26:19.131Z,56.51
2022-09-12T17:28:47.231Z,56.29
2022-09-12T17:31:15.931Z,56.24
2022-09-12T17:33:45.878Z,56.24
2022-09-12T17:36:16.622Z,56.52
2022-09-12T17:38:46.460Z,56.39
2022-09-12T17:41:17.842Z,56.24
2022-09-12T17:43:46.571Z,56.42
2022-09-12T17:46:15.287Z,56.24
2022-09-12T17:48:43.779Z,56.52
2022-09-12T17:51:15.336Z,56.24
2022-09-12T17:53:44.299Z,56.51
2022-09-12T17:56:13.250Z,56.27
2022-09-12T17:58:41.324Z,56.19
2022-09-12T18:01:31.112Z,56.40
2022-09-12T18:04:01.739Z,56.38
2022-09-12T18:06:32.506Z,56.17
2022-09-12T18:09:01.711Z,56.09
2022-09-12T18:11:30.085Z,56.56
2022-09-12T18:13:59.654Z,56.16
2022-09-12T18:16:28.702Z,56.44
2022-09-12T18:18:56.926Z,56.47
2022-09-12T18:21:24.980Z,56.65
2022-09-12T18:23:54.578Z,56.28
2022-09-12T18:26:22.823Z,56.52
2022-09-12T18:28:50.919Z,56.39
2022-09-12T18:31:21.373Z,56.27
2022-09-12T18:33:49.808Z,56.25
2022-09-12T18:36:19.528Z,56.49
2022-09-12T18:38:48.248Z,56.33
2022-09-12T18:41:19.431Z,56.60
2022-09-12T18:43:48.791Z,56.54
2022-09-12T18:46:19.060Z,56.23
2022-09-12T18:48:47.943Z,56.50
2022-09-12T18:51:18.440Z,56.57
2022-09-12T18:53:52.084Z,56.71
2022-09-12T18:56:23.085Z,56.26
2022-09-12T18:58:53.091Z,56.68
2022-09-12T19:01:22.867Z,56.30
2022-09-12T19:03:52.233Z,56.31
2022-09-12T19:06:22.121Z,56.67
2022-09-12T19:08:50.979Z,56.47
2022-09-12T19:11:21.651Z,56.67
2022-09-12T19:13:51.997Z,56.69
2022-09-12T19:16:21.995Z,56.48
2022-09-12T19:18:52.323Z,56.66
2022-09-12T19:21:22.613Z,56.23
2022-09-12T19:23:51.803Z,56.54
2022-09-12T19:26:22.775Z,56.47
2022-09-12T19:28:51.214Z,56.53
2022-09-12T19:31:20.833Z,56.33
2022-09-12T19:33:49.527Z,56.34
2022-09-12T19:36:44.466Z,56.33
2022-09-12T19:39:09.609Z,56.69
2022-09-12T19:41:39.162Z,56.37
2022-09-12T19:44:07.546Z,56.30
2022-09-12T19:46:35.679Z,56.88
2022-09-12T19:49:03.812Z,56.62
2022-09-12T19:51:31.937Z,56.48
2022-09-12T19:54:00.037Z,56.59
2022-09-12T19:56:28.122Z,56.57
2022-09-12T19:58:57.658Z,56.43
2022-09-12T20:01:28.516Z,56.41
2022-09-12T20:03:57.553Z,56.54
2022-09-12T20:06:26.529Z,56.87
2022-09-12T20:08:55.111Z,56.92
2022-09-12T20:11:24.579Z,56.69
2022-09-12T20:13:53.122Z,56.68
2022-09-12T20:16:25.262Z,56.95
2022-09-12T20:18:58.421Z,56.52
2022-09-12T20:21:31.619Z,56.54
2022-09-12T20:24:05.059Z,56.97
2022-09-12T20:26:33.755Z,56.95
2022-09-12T20:29:01.888Z,56.85
2022-09-12T20:31:32.119Z,56.96
2022-09-12T20:34:00.584Z,57.02
2022-09-12T20:36:29.182Z,57.00
2022-09-12T20:39:00.039Z,56.79
2022-09-12T20:41:30.439Z,56.76
2022-09-12T20:43:59.180Z,56.76
2022-09-12T20:46:28.933Z,56.79
2022-09-12T20:48:59.007Z,56.98
2022-09-12T20:51:29.663Z,56.99
2022-09-12T20:53:58.603Z,57.04
2022-09-12T20:56:27.875Z,56.61
2022-09-12T20:58:56.653Z,57.09
2022-09-12T21:01:25.785Z,56.79
2022-09-12T21:03:54.425Z,57.06
2022-09-12T21:06:24.321Z,56.97
2022-09-12T21:08:52.647Z,57.16
2022-09-12T21:11:21.503Z,57.13
2022-09-12T21:13:50.350Z,56.83
2022-09-12T21:16:20.683Z,56.79
2022-09-12T21:18:49.122Z,57.17
2022-09-12T21:21:17.495Z,56.97
2022-09-12T21:23:47.108Z,56.98
2022-09-12T21:26:15.161Z,56.85
2022-09-12T21:28:43.360Z,56.89
2022-09-12T21:31:11.580Z,56.83
2022-09-12T21:33:40.094Z,56.97
2022-09-12T21:36:09.586Z,57.09
2022-09-12T21:38:37.638Z,56.69
2022-09-12T21:41:09.224Z,56.82
2022-09-12T21:43:37.811Z,56.77
2022-09-12T21:46:07.694Z,56.88
2022-09-12T21:48:36.424Z,57.13
2022-09-12T21:51:05.116Z,56.87
2022-09-12T21:53:33.319Z,57.06
2022-09-12T21:56:05.849Z,56.81
2022-09-12T21:58:35.398Z,57.15
2022-09-12T22:01:04.585Z,57.01
2022-09-12T22:03:33.150Z,57.05
2022-09-12T22:06:02.721Z,57.01
2022-09-12T22:08:32.469Z,56.96
2022-09-12T22:11:02.134Z,57.21
2022-09-12T22:13:32.369Z,57.04
2022-09-12T22:16:03.155Z,56.80
2022-09-12T22:18:33.987Z,56.74
2022-09-12T22:21:03.864Z,56.77
2022-09-12T22:23:49.481Z,57.13
2022-09-12T22:26:18.092Z,57.11
2022-09-12T22:28:47.329Z,57.02
2022-09-12T22:31:17.869Z,57.11
2022-09-12T22:33:46.412Z,56.77
2022-09-12T22:36:14.607Z,57.15
2022-09-12T22:38:42.749Z,57.34
2022-09-12T22:41:13.264Z,57.19
2022-09-12T22:43:41.550Z,57.22
2022-09-12T22:46:12.249Z,56.87
2022-09-12T22:48:42.860Z,56.86
2022-09-12T22:51:11.431Z,56.82
2022-09-12T22:53:39.988Z,57.12
2022-09-12T22:56:09.046Z,56.90
2022-09-12T22:58:38.805Z,56.97
2022-09-12T23:01:07.661Z,57.07
2022-09-12T23:03:36.468Z,57.33
2022-09-12T23:06:07.246Z,57.18
2022-09-12T23:08:37.003Z,57.22
2022-09-12T23:11:06.892Z,57.26
2022-09-12T23:13:35.009Z,56.93
2022-09-12T23:16:05.165Z,57.27
2022-09-12T23:18:36.719Z,57.45
2022-09-12T23:21:08.471Z,57.04
2022-09-12T23:23:37.303Z,57.40
2022-09-12T23:26:07.465Z,56.92
2022-09-12T23:28:36.577Z,57.17
2022-09-12T23:31:05.505Z,57.12
2022-09-12T23:33:33.906Z,57.07
2022-09-12T23:36:02.993Z,57.22
2022-09-12T23:38:34.136Z,56.99
2022-09-12T23:41:03.368Z,57.29
2022-09-12T23:43:31.955Z,57.03
2022-09-12T23:46:00.230Z,57.22
2022-09-12T23:48:28.916Z,56.96
2022-09-12T23:50:56.988Z,57.17
2022-09-12T23:53:25.585Z,57.46
2022-09-12T23:55:55.125Z,57.16
2022-09-12T23:58:23.481Z,57.32
